地図

経路データ

SID SEASON NUMBER BASIN SUBBASIN NAME ISO_TIME NATURE LAT LON WMO_WIND WMO_PRES WMO_AGENCY TRACK_TYPE DIST2LAND LANDFALL IFLAG USA_AGENCY USA_ATCF_ID USA_LAT USA_LON USA_RECORD USA_STATUS USA_WIND USA_PRES USA_SSHS USA_R34_NE USA_R34_SE USA_R34_SW USA_R34_NW USA_R50_NE USA_R50_SE USA_R50_SW USA_R50_NW USA_R64_NE USA_R64_SE USA_R64_SW USA_R64_NW USA_POCI USA_ROCI USA_RMW USA_EYE TOKYO_LAT TOKYO_LON TOKYO_GRADE TOKYO_WIND TOKYO_PRES TOKYO_R50_DIR TOKYO_R50_LONG TOKYO_R50_SHORT TOKYO_R30_DIR TOKYO_R30_LONG TOKYO_R30_SHORT TOKYO_LAND CMA_LAT CMA_LON CMA_CAT CMA_WIND CMA_PRES HKO_LAT HKO_LON HKO_CAT HKO_WIND HKO_PRES NEWDELHI_LAT NEWDELHI_LON NEWDELHI_GRADE NEWDELHI_WIND NEWDELHI_PRES NEWDELHI_CI NEWDELHI_DP NEWDELHI_POCI REUNION_LAT REUNION_LON REUNION_TYPE REUNION_WIND REUNION_PRES REUNION_TNUM REUNION_CI REUNION_RMW REUNION_R34_NE REUNION_R34_SE REUNION_R34_SW REUNION_R34_NW REUNION_R50_NE REUNION_R50_SE REUNION_R50_SW REUNION_R50_NW REUNION_R64_NE REUNION_R64_SE REUNION_R64_SW REUNION_R64_NW BOM_LAT BOM_LON BOM_TYPE BOM_WIND BOM_PRES BOM_TNUM BOM_CI BOM_RMW BOM_R34_NE BOM_R34_SE BOM_R34_SW BOM_R34_NW BOM_R50_NE BOM_R50_SE BOM_R50_SW BOM_R50_NW BOM_R64_NE BOM_R64_SE BOM_R64_SW BOM_R64_NW BOM_ROCI BOM_POCI BOM_EYE BOM_POS_METHOD BOM_PRES_METHOD NADI_LAT NADI_LON NADI_CAT NADI_WIND NADI_PRES WELLINGTON_LAT WELLINGTON_LON WELLINGTON_WIND WELLINGTON_PRES DS824_LAT DS824_LON DS824_STAGE DS824_WIND DS824_PRES TD9636_LAT TD9636_LON TD9636_STAGE TD9636_WIND TD9636_PRES TD9635_LAT TD9635_LON TD9635_WIND TD9635_PRES TD9635_ROCI NEUMANN_LAT NEUMANN_LON NEUMANN_CLASS NEUMANN_WIND NEUMANN_PRES MLC_LAT MLC_LON MLC_CLASS MLC_WIND MLC_PRES USA_GUST BOM_GUST BOM_GUST_PER REUNION_GUST REUNION_GUST_PER USA_SEAHGT USA_SEARAD_NE USA_SEARAD_SE USA_SEARAD_SW USA_SEARAD_NW STORM_SPEED STORM_DIR
1929011S20154 1929 5 SP EA NOT_NAMED 1929-01-10 23:00:00 NR -19.7000 153.800 bom main 441 441 ______O_______ -1 -19.7000 153.800 2 256
1929011S20154 1929 5 SP EA NOT_NAMED 1929-01-11 00:00:00 TS -19.7094 153.769 main 441 418 ______P__O____ -1 -19.7141 153.754 -19.7000 153.800 TC 3 250
1929011S20154 1929 5 SP EA NOT_NAMED 1929-01-11 03:00:00 TS -19.7599 153.625 main 418 410 ______P__P____ -1 -19.7580 153.616 -19.7627 153.639 TC 3 248
1929011S20154 1929 5 SP EA NOT_NAMED 1929-01-11 06:00:00 TS -19.8166 153.481 main 410 388 ______P__P____ -1 -19.8075 153.480 -19.8288 153.482 TC 3 245
1929011S20154 1929 5 SP EA NOT_NAMED 1929-01-11 09:00:00 TS -19.8844 153.339 main 388 373 ______P__P____ -1 -19.8669 153.347 -19.9019 153.331 TC 3 241
1929011S20154 1929 5 SP EA NOT_NAMED 1929-01-11 12:00:00 TS -19.9631 153.204 main 373 357 ______P__P____ -1 -19.9404 153.218 -19.9858 153.191 TC 3 234
1929011S20154 1929 5 SP EA NOT_NAMED 1929-01-11 15:00:00 TS -20.0581 153.079 main 357 342 ______P__P____ -1 -20.0323 153.094 -20.0838 153.064 TC 3 227
1929011S20154 1929 5 SP EA NOT_NAMED 1929-01-11 18:00:00 TS -20.1733 152.966 main 342 327 ______P__P____ -1 -20.1469 152.977 -20.1998 152.954 TC 3 218
1929011S20154 1929 5 SP EA NOT_NAMED 1929-01-11 21:00:00 TS -20.3129 152.867 main 327 311 ______P__P____ -1 -20.2885 152.868 -20.3373 152.865 TC 4 217
1929011S20154 1929 5 SP EA NOT_NAMED 1929-01-11 23:00:00 TS -20.4412 152.753 bom main 311 296 ______O__PO___ -1 -20.4000 152.800 -20.4428 152.819 TC -20.6000 152.300 7 5 218
1929011S20154 1929 5 SP EA NOT_NAMED 1929-01-12 00:00:00 TS -20.5201 152.692 main 296 273 ______P__OP___ -1 -20.4613 152.768 -20.5000 152.800 TC -20.6778 152.324 7 5 200
1929011S20154 1929 5 SP EA NOT_NAMED 1929-01-12 03:00:00 TS -20.7404 152.633 main 273 250 ______P__PP___ -1 -20.6641 152.682 -20.6896 152.761 TC -20.9099 152.398 7 5 188
1929011S20154 1929 5 SP EA NOT_NAMED 1929-01-12 06:00:00 TS -20.9754 152.614 main 250 235 ______P__PP___ -1 -20.8876 152.621 -20.9007 152.747 TC -21.1378 152.472 7 5 0
1929011S20154 1929 5 SP EA NOT_NAMED 1929-01-12 09:00:00 TS -21.2019 152.633 main 235 229 ______P__PP___ -1 -21.1215 152.598 -21.1257 152.754 TC -21.3585 152.548 7 5 174
1929011S20154 1929 5 SP EA NOT_NAMED 1929-01-12 10:00:00 TS -21.2775 152.645 bom main 229 229 ______O__PP___ -1 -21.2000 152.600 -21.2025 152.760 TC -21.4299 152.574 7 5 171
1929011S20154 1929 5 SP EA NOT_NAMED 1929-01-12 11:00:00 TS -21.3531 152.659 main 231 231 ______P__PO___ -1 -21.2795 152.609 -21.2798 152.769 TC -21.5000 152.600 7 5 163
1929011S20154 1929 5 SP EA NOT_NAMED 1929-01-12 12:00:00 TS -21.4287 152.677 main 231 220 ______P__PP___ -1 -21.3603 152.625 -21.3572 152.779 TC -21.5687 152.626 7 5 166
1929011S20154 1929 5 SP EA NOT_NAMED 1929-01-12 15:00:00 TS -21.6529 152.742 main 215 215 ______P__PP___ -1 -21.6053 152.700 -21.5879 152.820 TC -21.7654 152.705 7 5 163
1929011S20154 1929 5 SP EA NOT_NAMED 1929-01-12 18:00:00 TS -21.8669 152.820 main 216 216 ______P__PP___ -1 -21.8451 152.805 -21.8102 152.872 TC -21.9455 152.783 7 4 159
1929011S20154 1929 5 SP EA NOT_NAMED 1929-01-12 21:00:00 TS -22.0633 152.904 main 220 218 ______P__PP___ -1 -22.0674 152.923 -22.0167 152.933 TC -22.1057 152.856 7 4 157
1929011S20154 1929 5 SP EA NOT_NAMED 1929-01-12 23:00:00 TS -22.1806 152.959 992 bom main 228 228 ______O__PO___ -1 -22.2000 153.000 992 4 -22.1419 152.977 TC -22.2000 152.900 7 4 159
1929011S20154 1929 5 SP EA NOT_NAMED 1929-01-13 00:00:00 TS -22.2327 152.980 main 228 226 ______P__OP___ -1 -22.2547 153.020 -22.2000 153.000 TC 45 992 -22.2434 152.920 7 3 159
1929011S20154 1929 5 SP EA NOT_NAMED 1929-01-13 03:00:00 TS -22.3686 153.037 main 226 222 ______P__PP___ -1 -22.3942 153.068 -22.3546 153.070 TC -22.3570 152.975 7 3 157
1929011S20154 1929 5 SP EA NOT_NAMED 1929-01-13 06:00:00 TS -22.4793 153.090 main 222 213 ______P__PP___ -1 -22.5026 153.105 -22.4823 153.142 TC -22.4532 153.023 7 2 155
1929011S20154 1929 5 SP EA NOT_NAMED 1929-01-13 09:00:00 TS -22.5719 153.142 main 213 213 ______P__PP___ -1 -22.5875 153.140 -22.5871 153.215 TC -22.5412 153.069 7 2 152
1929011S20154 1929 5 SP EA NOT_NAMED 1929-01-13 11:00:00 TS -22.6270 153.177 main 220 220 ______P__PO___ -1 -22.6350 153.165 -22.6460 153.265 TC -22.6000 153.100 7 2 156
1929011S20154 1929 5 SP EA NOT_NAMED 1929-01-13 12:00:00 TS -22.6530 153.193 main 211 211 ______P__PP___ -1 -22.6568 153.180 -22.6727 153.290 TC -22.6296 153.108 7 2 152
1929011S20154 1929 5 SP EA NOT_NAMED 1929-01-13 15:00:00 TS -22.7259 153.243 main 211 210 ______P__PP___ -1 -22.7180 153.233 -22.7429 153.367 TC -22.7169 153.129 7 2 144
1929011S20154 1929 5 SP EA NOT_NAMED 1929-01-13 18:00:00 TS -22.7966 153.304 main 210 210 ______P__PP___ -1 -22.7788 153.307 -22.8017 153.444 TC -22.8092 153.161 7 2 141
1929011S20154 1929 5 SP EA NOT_NAMED 1929-01-13 21:00:00 TS -22.8736 153.374 main 210 210 ______P__PP___ -1 -22.8468 153.411 -22.8528 153.522 TC -22.9160 153.227 7 2 139
1929011S20154 1929 5 SP EA NOT_NAMED 1929-01-13 23:00:00 TS -22.9369 153.435 bom main 210 201 ______O__PO___ -1 -22.9000 153.500 -22.8844 153.574 TC -23.0000 153.300 7 3 141
1929011S20154 1929 5 SP EA NOT_NAMED 1929-01-14 00:00:00 TS -22.9797 153.467 main 202 191 ______P__OP___ -1 -22.9297 153.551 -22.9000 153.600 TC -23.0495 153.350 7 4 135
1929011S20154 1929 5 SP EA NOT_NAMED 1929-01-14 03:00:00 NR -23.1231 153.636 main 192 175 ______P___P___ -1 -23.0311 153.732 TC -23.2152 153.539 7 5 129
1929011S20154 1929 5 SP EA NOT_NAMED 1929-01-14 06:00:00 NR -23.2727 153.860 main 178 171 ______P___P___ -1 -23.1488 153.949 TC -23.3966 153.770 7 5 125
1929011S20154 1929 5 SP EA NOT_NAMED 1929-01-14 09:00:00 NR -23.4308 154.111 main 176 171 ______P___P___ -1 -23.2804 154.196 TC -23.5812 154.026 7 6 124
1929011S20154 1929 5 SP EA NOT_NAMED 1929-01-14 11:00:00 NR -23.5372 154.287 main 177 168 ______P___O___ -1 -23.3744 154.375 TC -23.7000 154.200 7 6 123
1929011S20154 1929 5 SP EA NOT_NAMED 1929-01-14 12:00:00 NR -23.5899 154.377 main 174 172 ______P___P___ -1 -23.4231 154.468 TC -23.7568 154.286 7 6 122
1929011S20154 1929 5 SP EA NOT_NAMED 1929-01-14 15:00:00 NR -23.7458 154.651 main 187 180 ______P___P___ -1 -23.5743 154.761 TC -23.9174 154.541 7 6 121
1929011S20154 1929 5 SP EA NOT_NAMED 1929-01-14 18:00:00 NR -23.8989 154.929 main 190 190 ______P___P___ -1 -23.7315 155.068 TC -24.0663 154.790 7 6 121
1929011S20154 1929 5 SP EA NOT_NAMED 1929-01-14 21:00:00 NR -24.0500 155.211 main 212 207 ______P___P___ -1 -23.8922 155.386 TC -24.2077 155.036 7 6 120
1929011S20154 1929 5 SP EA NOT_NAMED 1929-01-14 23:00:00 NR -24.1500 155.400 bom main 225 ______O___O___ -1 -24.0000 155.600 TC -24.3000 155.200 7 6 120

デジタル台風データ・検索

IBTrACS Databaseについて

本データベースは、米国NOAAが公開する1842年以降の世界の熱帯低気圧のベストトラックデータアーカイブInternational Best Track Archive for Climate Stewardship (IBTrACS)を、ウェブで閲覧しやすい形式に変換したものです。

最終更新日:2021-12-08